sensor_id;sensor_type;location;lat;lon;timestamp;P1;durP1;ratioP1;P2;durP2;ratioP2
5454;SDS011;2750;49.050;9.250;2022-08-03T00:02:20;4.60;;;3.97;;
5454;SDS011;2750;49.050;9.250;2022-08-03T00:07:21;4.17;;;3.77;;
5454;SDS011;2750;49.050;9.250;2022-08-03T00:12:24;3.80;;;3.50;;
5454;SDS011;2750;49.050;9.250;2022-08-03T00:17:26;4.30;;;3.90;;
5454;SDS011;2750;49.050;9.250;2022-08-03T00:22:27;4.60;;;4.20;;
5454;SDS011;2750;49.050;9.250;2022-08-03T00:27:30;4.43;;;4.13;;
5454;SDS011;2750;49.050;9.250;2022-08-03T00:32:31;5.00;;;3.80;;
5454;SDS011;2750;49.050;9.250;2022-08-03T00:37:33;8.07;;;4.10;;
5454;SDS011;2750;49.050;9.250;2022-08-03T00:42:36;3.63;;;3.33;;
5454;SDS011;2750;49.050;9.250;2022-08-03T00:47:46;3.80;;;3.40;;
5454;SDS011;2750;49.050;9.250;2022-08-03T00:52:48;5.73;;;3.70;;
5454;SDS011;2750;49.050;9.250;2022-08-03T00:57:53;6.87;;;3.87;;
5454;SDS011;2750;49.050;9.250;2022-08-03T01:02:55;3.80;;;3.50;;
5454;SDS011;2750;49.050;9.250;2022-08-03T01:07:59;3.90;;;3.60;;
5454;SDS011;2750;49.050;9.250;2022-08-03T01:13:09;3.40;;;3.10;;
5454;SDS011;2750;49.050;9.250;2022-08-03T01:18:19;3.13;;;2.87;;
5454;SDS011;2750;49.050;9.250;2022-08-03T01:23:36;5.93;;;3.43;;
5454;SDS011;2750;49.050;9.250;2022-08-03T01:28:58;3.80;;;3.50;;
5454;SDS011;2750;49.050;9.250;2022-08-03T01:34:10;4.43;;;3.27;;
5454;SDS011;2750;49.050;9.250;2022-08-03T01:39:15;3.63;;;3.33;;
5454;SDS011;2750;49.050;9.250;2022-08-03T01:44:19;5.47;;;3.80;;
5454;SDS011;2750;49.050;9.250;2022-08-03T01:49:25;5.53;;;3.83;;
5454;SDS011;2750;49.050;9.250;2022-08-03T01:54:28;5.67;;;4.33;;
5454;SDS011;2750;49.050;9.250;2022-08-03T01:59:33;4.80;;;3.90;;
5454;SDS011;2750;49.050;9.250;2022-08-03T02:04:37;3.90;;;3.53;;
5454;SDS011;2750;49.050;9.250;2022-08-03T02:09:42;4.37;;;4.07;;
5454;SDS011;2750;49.050;9.250;2022-08-03T02:14:45;4.50;;;4.10;;
5454;SDS011;2750;49.050;9.250;2022-08-03T02:19:50;4.17;;;3.83;;
5454;SDS011;2750;49.050;9.250;2022-08-03T02:24:52;4.70;;;4.40;;
5454;SDS011;2750;49.050;9.250;2022-08-03T02:29:55;4.90;;;4.50;;
5454;SDS011;2750;49.050;9.250;2022-08-03T02:35:04;4.60;;;4.00;;
5454;SDS011;2750;49.050;9.250;2022-08-03T02:40:09;4.20;;;3.80;;
5454;SDS011;2750;49.050;9.250;2022-08-03T02:45:13;4.67;;;3.67;;
5454;SDS011;2750;49.050;9.250;2022-08-03T02:50:18;4.70;;;4.30;;
5454;SDS011;2750;49.050;9.250;2022-08-03T02:55:21;3.77;;;3.47;;
5454;SDS011;2750;49.050;9.250;2022-08-03T03:00:26;4.87;;;4.47;;
5454;SDS011;2750;49.050;9.250;2022-08-03T03:05:29;4.30;;;3.90;;
5454;SDS011;2750;49.050;9.250;2022-08-03T03:10:31;4.20;;;3.80;;
5454;SDS011;2750;49.050;9.250;2022-08-03T03:15:33;4.87;;;4.43;;
5454;SDS011;2750;49.050;9.250;2022-08-03T03:20:38;4.50;;;4.10;;
5454;SDS011;2750;49.050;9.250;2022-08-03T03:25:40;5.20;;;4.70;;
5454;SDS011;2750;49.050;9.250;2022-08-03T03:30:43;4.77;;;4.20;;
5454;SDS011;2750;49.050;9.250;2022-08-03T03:35:46;5.97;;;5.37;;
5454;SDS011;2750;49.050;9.250;2022-08-03T03:40:48;5.47;;;4.97;;
5454;SDS011;2750;49.050;9.250;2022-08-03T03:45:50;6.83;;;5.67;;
5454;SDS011;2750;49.050;9.250;2022-08-03T03:50:54;5.50;;;5.00;;
5454;SDS011;2750;49.050;9.250;2022-08-03T03:55:57;6.70;;;5.10;;
5454;SDS011;2750;49.050;9.250;2022-08-03T04:00:58;6.47;;;5.87;;
5454;SDS011;2750;49.050;9.250;2022-08-03T04:06:01;6.23;;;5.63;;
5454;SDS011;2750;49.050;9.250;2022-08-03T04:11:21;5.57;;;5.07;;
5454;SDS011;2750;49.050;9.250;2022-08-03T04:16:29;6.23;;;4.90;;
5454;SDS011;2750;49.050;9.250;2022-08-03T04:21:34;4.90;;;4.50;;
5454;SDS011;2750;49.050;9.250;2022-08-03T04:26:38;5.47;;;4.97;;
5454;SDS011;2750;49.050;9.250;2022-08-03T04:31:42;5.50;;;5.10;;
5454;SDS011;2750;49.050;9.250;2022-08-03T04:36:48;7.37;;;4.17;;
5454;SDS011;2750;49.050;9.250;2022-08-03T04:41:55;4.50;;;4.10;;
5454;SDS011;2750;49.050;9.250;2022-08-03T04:46:58;4.68;;;4.28;;
5454;SDS011;2750;49.050;9.250;2022-08-03T04:52:02;4.50;;;4.20;;
5454;SDS011;2750;49.050;9.250;2022-08-03T04:57:04;6.22;;;4.47;;
5454;SDS011;2750;49.050;9.250;2022-08-03T05:02:05;5.05;;;3.85;;
5454;SDS011;2750;49.050;9.250;2022-08-03T05:07:08;5.00;;;4.20;;
5454;SDS011;2750;49.050;9.250;2022-08-03T05:12:10;4.63;;;3.42;;
5454;SDS011;2750;49.050;9.250;2022-08-03T05:17:11;4.38;;;4.07;;
5454;SDS011;2750;49.050;9.250;2022-08-03T05:22:14;5.20;;;4.70;;
5454;SDS011;2750;49.050;9.250;2022-08-03T05:27:16;5.18;;;4.68;;
5454;SDS011;2750;49.050;9.250;2022-08-03T05:32:19;6.38;;;4.43;;
5454;SDS011;2750;49.050;9.250;2022-08-03T05:37:21;6.32;;;4.38;;
5454;SDS011;2750;49.050;9.250;2022-08-03T05:42:23;7.63;;;4.38;;
5454;SDS011;2750;49.050;9.250;2022-08-03T05:47:24;7.00;;;4.60;;
5454;SDS011;2750;49.050;9.250;2022-08-03T05:52:27;4.78;;;3.83;;
5454;SDS011;2750;49.050;9.250;2022-08-03T05:57:29;4.47;;;4.07;;
5454;SDS011;2750;49.050;9.250;2022-08-03T06:02:30;4.68;;;4.03;;
5454;SDS011;2750;49.050;9.250;2022-08-03T06:07:33;3.80;;;3.50;;
5454;SDS011;2750;49.050;9.250;2022-08-03T06:12:35;7.85;;;4.30;;
5454;SDS011;2750;49.050;9.250;2022-08-03T06:17:43;5.78;;;4.35;;
5454;SDS011;2750;49.050;9.250;2022-08-03T06:22:47;4.85;;;4.25;;
5454;SDS011;2750;49.050;9.250;2022-08-03T06:27:49;5.22;;;4.20;;
5454;SDS011;2750;49.050;9.250;2022-08-03T06:32:50;4.72;;;4.22;;
5454;SDS011;2750;49.050;9.250;2022-08-03T06:37:53;4.45;;;4.03;;
5454;SDS011;2750;49.050;9.250;2022-08-03T06:42:55;4.78;;;3.67;;
5454;SDS011;2750;49.050;9.250;2022-08-03T06:48:00;4.28;;;3.72;;
5454;SDS011;2750;49.050;9.250;2022-08-03T06:53:04;4.22;;;3.83;;
5454;SDS011;2750;49.050;9.250;2022-08-03T06:58:06;4.15;;;3.75;;
5454;SDS011;2750;49.050;9.250;2022-08-03T07:03:07;6.05;;;3.50;;
5454;SDS011;2750;49.050;9.250;2022-08-03T07:08:10;7.07;;;4.10;;
5454;SDS011;2750;49.050;9.250;2022-08-03T07:13:12;7.30;;;5.60;;
5454;SDS011;2750;49.050;9.250;2022-08-03T07:18:13;7.90;;;6.47;;
5454;SDS011;2750;49.050;9.250;2022-08-03T07:23:16;8.95;;;6.57;;
5454;SDS011;2750;49.050;9.250;2022-08-03T07:28:17;4.25;;;3.85;;
5454;SDS011;2750;49.050;9.250;2022-08-03T07:33:19;6.43;;;3.22;;
5454;SDS011;2750;49.050;9.250;2022-08-03T07:38:22;3.53;;;3.22;;
5454;SDS011;2750;49.050;9.250;2022-08-03T07:43:23;6.65;;;3.13;;
5454;SDS011;2750;49.050;9.250;2022-08-03T07:48:25;4.25;;;3.58;;
5454;SDS011;2750;49.050;9.250;2022-08-03T07:53:28;5.65;;;3.10;;
5454;SDS011;2750;49.050;9.250;2022-08-03T07:58:29;4.93;;;3.13;;
5454;SDS011;2750;49.050;9.250;2022-08-03T08:03:31;3.30;;;3.00;;
5454;SDS011;2750;49.050;9.250;2022-08-03T08:08:33;3.80;;;3.50;;
5454;SDS011;2750;49.050;9.250;2022-08-03T08:13:35;3.10;;;2.90;;
5454;SDS011;2750;49.050;9.250;2022-08-03T08:18:37;4.82;;;2.70;;
5454;SDS011;2750;49.050;9.250;2022-08-03T08:23:40;2.90;;;2.70;;
5454;SDS011;2750;49.050;9.250;2022-08-03T08:28:42;3.10;;;2.72;;
5454;SDS011;2750;49.050;9.250;2022-08-03T08:33:43;4.45;;;3.03;;
5454;SDS011;2750;49.050;9.250;2022-08-03T08:38:46;3.05;;;2.80;;
5454;SDS011;2750;49.050;9.250;2022-08-03T08:43:48;4.05;;;2.42;;
5454;SDS011;2750;49.050;9.250;2022-08-03T08:48:50;2.72;;;2.45;;
5454;SDS011;2750;49.050;9.250;2022-08-03T08:53:54;2.47;;;2.28;;
5454;SDS011;2750;49.050;9.250;2022-08-03T08:58:58;2.47;;;2.28;;
5454;SDS011;2750;49.050;9.250;2022-08-03T09:04:03;3.58;;;2.30;;
5454;SDS011;2750;49.050;9.250;2022-08-03T09:09:08;3.13;;;2.63;;
5454;SDS011;2750;49.050;9.250;2022-08-03T09:14:09;2.63;;;2.42;;
5454;SDS011;2750;49.050;9.250;2022-08-03T09:19:11;2.92;;;2.20;;
5454;SDS011;2750;49.050;9.250;2022-08-03T09:24:16;2.58;;;1.90;;
5454;SDS011;2750;49.050;9.250;2022-08-03T09:29:22;2.78;;;2.58;;
5454;SDS011;2750;49.050;9.250;2022-08-03T09:34:24;3.67;;;2.20;;
5454;SDS011;2750;49.050;9.250;2022-08-03T09:39:28;4.13;;;2.33;;
5454;SDS011;2750;49.050;9.250;2022-08-03T09:44:33;3.70;;;2.60;;
5454;SDS011;2750;49.050;9.250;2022-08-03T09:49:35;2.70;;;2.50;;
5454;SDS011;2750;49.050;9.250;2022-08-03T09:54:39;6.05;;;2.50;;
5454;SDS011;2750;49.050;9.250;2022-08-03T09:59:40;2.47;;;2.28;;
5454;SDS011;2750;49.050;9.250;2022-08-03T10:04:45;2.70;;;2.08;;
5454;SDS011;2750;49.050;9.250;2022-08-03T10:09:55;3.05;;;2.50;;
5454;SDS011;2750;49.050;9.250;2022-08-03T10:14:58;2.72;;;2.35;;
5454;SDS011;2750;49.050;9.250;2022-08-03T10:19:59;3.42;;;2.60;;
5454;SDS011;2750;49.050;9.250;2022-08-03T10:25:05;2.97;;;2.50;;
5454;SDS011;2750;49.050;9.250;2022-08-03T10:30:08;2.80;;;2.40;;
5454;SDS011;2750;49.050;9.250;2022-08-03T10:35:11;2.72;;;2.50;;
5454;SDS011;2750;49.050;9.250;2022-08-03T10:40:17;3.13;;;2.83;;
5454;SDS011;2750;49.050;9.250;2022-08-03T10:45:22;2.72;;;2.53;;
5454;SDS011;2750;49.050;9.250;2022-08-03T10:50:25;2.45;;;2.10;;
5454;SDS011;2750;49.050;9.250;2022-08-03T10:55:29;2.65;;;2.45;;
5454;SDS011;2750;49.050;9.250;2022-08-03T11:00:50;2.40;;;2.20;;
5454;SDS011;2750;49.050;9.250;2022-08-03T11:05:52;2.70;;;2.22;;
5454;SDS011;2750;49.050;9.250;2022-08-03T11:10:57;2.75;;;2.55;;
5454;SDS011;2750;49.050;9.250;2022-08-03T11:16:01;2.50;;;2.30;;
5454;SDS011;2750;49.050;9.250;2022-08-03T11:21:18;3.85;;;2.25;;
5454;SDS011;2750;49.050;9.250;2022-08-03T11:26:21;3.05;;;2.85;;
5454;SDS011;2750;49.050;9.250;2022-08-03T11:31:44;2.90;;;2.60;;
5454;SDS011;2750;49.050;9.250;2022-08-03T11:42:38;2.22;;;2.13;;
5454;SDS011;2750;49.050;9.250;2022-08-03T11:47:42;2.60;;;2.40;;
5454;SDS011;2750;49.050;9.250;2022-08-03T11:52:44;2.42;;;2.22;;
5454;SDS011;2750;49.050;9.250;2022-08-03T11:57:47;2.42;;;2.22;;
5454;SDS011;2750;49.050;9.250;2022-08-03T12:02:59;2.72;;;2.53;;
5454;SDS011;2750;49.050;9.250;2022-08-03T12:08:04;2.00;;;1.90;;
5454;SDS011;2750;49.050;9.250;2022-08-03T12:13:08;2.25;;;2.00;;
5454;SDS011;2750;49.050;9.250;2022-08-03T12:18:13;2.33;;;2.20;;
5454;SDS011;2750;49.050;9.250;2022-08-03T12:23:15;2.47;;;2.25;;
5454;SDS011;2750;49.050;9.250;2022-08-03T12:28:19;2.58;;;2.42;;
5454;SDS011;2750;49.050;9.250;2022-08-03T12:33:22;2.80;;;2.40;;
5454;SDS011;2750;49.050;9.250;2022-08-03T12:38:25;4.50;;;2.50;;
5454;SDS011;2750;49.050;9.250;2022-08-03T12:43:28;2.20;;;2.03;;
5454;SDS011;2750;49.050;9.250;2022-08-03T12:48:30;2.00;;;1.80;;
5454;SDS011;2750;49.050;9.250;2022-08-03T12:53:32;2.47;;;2.28;;
5454;SDS011;2750;49.050;9.250;2022-08-03T12:58:35;2.50;;;2.30;;
5454;SDS011;2750;49.050;9.250;2022-08-03T13:03:40;2.38;;;2.17;;
5454;SDS011;2750;49.050;9.250;2022-08-03T13:08:42;2.55;;;2.35;;
5454;SDS011;2750;49.050;9.250;2022-08-03T13:13:48;4.20;;;2.10;;
5454;SDS011;2750;49.050;9.250;2022-08-03T13:18:50;3.55;;;2.28;;
5454;SDS011;2750;49.050;9.250;2022-08-03T13:23:53;2.28;;;2.17;;
5454;SDS011;2750;49.050;9.250;2022-08-03T13:28:56;2.47;;;2.30;;
5454;SDS011;2750;49.050;9.250;2022-08-03T13:33:58;2.00;;;1.90;;
5454;SDS011;2750;49.050;9.250;2022-08-03T13:38:59;2.00;;;1.80;;
5454;SDS011;2750;49.050;9.250;2022-08-03T13:44:02;2.45;;;2.25;;
5454;SDS011;2750;49.050;9.250;2022-08-03T13:49:04;2.95;;;2.20;;
5454;SDS011;2750;49.050;9.250;2022-08-03T13:54:05;2.63;;;2.38;;
5454;SDS011;2750;49.050;9.250;2022-08-03T13:59:08;2.40;;;2.17;;
5454;SDS011;2750;49.050;9.250;2022-08-03T14:04:10;2.38;;;2.28;;
5454;SDS011;2750;49.050;9.250;2022-08-03T14:09:11;2.08;;;1.98;;
5454;SDS011;2750;49.050;9.250;2022-08-03T14:14:15;2.63;;;2.40;;
5454;SDS011;2750;49.050;9.250;2022-08-03T14:19:16;3.35;;;2.10;;
5454;SDS011;2750;49.050;9.250;2022-08-03T14:24:17;3.75;;;2.35;;
5454;SDS011;2750;49.050;9.250;2022-08-03T14:29:20;3.90;;;2.40;;
5454;SDS011;2750;49.050;9.250;2022-08-03T14:34:22;2.75;;;2.05;;
5454;SDS011;2750;49.050;9.250;2022-08-03T14:39:23;2.28;;;1.90;;
5454;SDS011;2750;49.050;9.250;2022-08-03T14:44:26;2.70;;;2.25;;
5454;SDS011;2750;49.050;9.250;2022-08-03T14:49:28;2.50;;;2.30;;
5454;SDS011;2750;49.050;9.250;2022-08-03T14:54:29;2.38;;;2.17;;
5454;SDS011;2750;49.050;9.250;2022-08-03T14:59:32;2.08;;;1.98;;
5454;SDS011;2750;49.050;9.250;2022-08-03T15:04:34;2.55;;;2.38;;
5454;SDS011;2750;49.050;9.250;2022-08-03T15:09:36;2.50;;;2.28;;
5454;SDS011;2750;49.050;9.250;2022-08-03T15:14:39;2.45;;;2.30;;
5454;SDS011;2750;49.050;9.250;2022-08-03T15:19:41;2.00;;;1.90;;
5454;SDS011;2750;49.050;9.250;2022-08-03T15:24:42;3.08;;;2.50;;
5454;SDS011;2750;49.050;9.250;2022-08-03T15:29:45;2.85;;;2.20;;
5454;SDS011;2750;49.050;9.250;2022-08-03T15:34:46;2.50;;;2.28;;
5454;SDS011;2750;49.050;9.250;2022-08-03T15:39:48;2.13;;;1.98;;
5454;SDS011;2750;49.050;9.250;2022-08-03T15:44:51;1.90;;;1.80;;
5454;SDS011;2750;49.050;9.250;2022-08-03T15:49:52;2.10;;;2.00;;
5454;SDS011;2750;49.050;9.250;2022-08-03T15:54:54;2.47;;;2.28;;
5454;SDS011;2750;49.050;9.250;2022-08-03T15:59:57;3.70;;;2.30;;
5454;SDS011;2750;49.050;9.250;2022-08-03T16:04:58;3.65;;;2.45;;
5454;SDS011;2750;49.050;9.250;2022-08-03T16:10:00;2.05;;;1.92;;
5454;SDS011;2750;49.050;9.250;2022-08-03T16:15:03;2.85;;;2.40;;
5454;SDS011;2750;49.050;9.250;2022-08-03T16:20:06;2.33;;;2.13;;
5454;SDS011;2750;49.050;9.250;2022-08-03T16:25:10;2.33;;;2.22;;
5454;SDS011;2750;49.050;9.250;2022-08-03T16:30:14;2.63;;;2.40;;
5454;SDS011;2750;49.050;9.250;2022-08-03T16:35:16;2.40;;;2.20;;
5454;SDS011;2750;49.050;9.250;2022-08-03T16:40:18;2.83;;;2.20;;
5454;SDS011;2750;49.050;9.250;2022-08-03T16:45:21;3.17;;;2.00;;
5454;SDS011;2750;49.050;9.250;2022-08-03T16:50:22;2.60;;;2.30;;
5454;SDS011;2750;49.050;9.250;2022-08-03T16:55:24;2.60;;;2.40;;
5454;SDS011;2750;49.050;9.250;2022-08-03T17:00:27;3.45;;;2.60;;
5454;SDS011;2750;49.050;9.250;2022-08-03T17:05:29;2.75;;;2.45;;
5454;SDS011;2750;49.050;9.250;2022-08-03T17:10:30;2.55;;;2.30;;
5454;SDS011;2750;49.050;9.250;2022-08-03T17:15:33;2.30;;;2.13;;
5454;SDS011;2750;49.050;9.250;2022-08-03T17:20:36;2.63;;;2.42;;
5454;SDS011;2750;49.050;9.250;2022-08-03T17:25:40;2.67;;;2.47;;
5454;SDS011;2750;49.050;9.250;2022-08-03T17:30:44;2.85;;;2.60;;
5454;SDS011;2750;49.050;9.250;2022-08-03T17:36:03;4.25;;;2.50;;
5454;SDS011;2750;49.050;9.250;2022-08-03T17:41:05;4.07;;;2.25;;
5454;SDS011;2750;49.050;9.250;2022-08-03T17:46:09;2.25;;;2.05;;
5454;SDS011;2750;49.050;9.250;2022-08-03T17:51:13;2.22;;;2.03;;
5454;SDS011;2750;49.050;9.250;2022-08-03T17:56:18;3.05;;;2.50;;
5454;SDS011;2750;49.050;9.250;2022-08-03T18:01:27;2.92;;;1.90;;
5454;SDS011;2750;49.050;9.250;2022-08-03T18:06:57;2.50;;;2.28;;
5454;SDS011;2750;49.050;9.250;2022-08-03T18:12:00;2.35;;;2.25;;
5454;SDS011;2750;49.050;9.250;2022-08-03T18:17:07;3.00;;;2.30;;
5454;SDS011;2750;49.050;9.250;2022-08-03T18:22:14;3.10;;;2.30;;
5454;SDS011;2750;49.050;9.250;2022-08-03T18:27:20;3.38;;;2.35;;
5454;SDS011;2750;49.050;9.250;2022-08-03T18:32:25;2.50;;;2.40;;
5454;SDS011;2750;49.050;9.250;2022-08-03T18:37:27;2.63;;;2.40;;
5454;SDS011;2750;49.050;9.250;2022-08-03T18:42:30;3.30;;;2.97;;
5454;SDS011;2750;49.050;9.250;2022-08-03T18:47:38;3.15;;;2.65;;
5454;SDS011;2750;49.050;9.250;2022-08-03T18:52:50;3.63;;;2.85;;
5454;SDS011;2750;49.050;9.250;2022-08-03T18:58:00;3.97;;;2.67;;
5454;SDS011;2750;49.050;9.250;2022-08-03T19:03:11;2.63;;;2.42;;
5454;SDS011;2750;49.050;9.250;2022-08-03T19:08:14;2.92;;;2.40;;
5454;SDS011;2750;49.050;9.250;2022-08-03T19:13:22;2.78;;;2.58;;
5454;SDS011;2750;49.050;9.250;2022-08-03T19:18:31;2.60;;;2.40;;
5454;SDS011;2750;49.050;9.250;2022-08-03T19:23:33;3.00;;;2.70;;
5454;SDS011;2750;49.050;9.250;2022-08-03T19:28:35;5.53;;;4.45;;
5454;SDS011;2750;49.050;9.250;2022-08-03T19:33:39;3.35;;;2.45;;
5454;SDS011;2750;49.050;9.250;2022-08-03T19:38:44;3.65;;;3.35;;
5454;SDS011;2750;49.050;9.250;2022-08-03T19:43:48;5.00;;;3.13;;
5454;SDS011;2750;49.050;9.250;2022-08-03T19:48:53;3.50;;;2.47;;
5454;SDS011;2750;49.050;9.250;2022-08-03T19:53:58;2.80;;;2.60;;
5454;SDS011;2750;49.050;9.250;2022-08-03T19:59:01;3.13;;;2.83;;
5454;SDS011;2750;49.050;9.250;2022-08-03T20:04:04;6.90;;;3.33;;
5454;SDS011;2750;49.050;9.250;2022-08-03T20:09:07;3.85;;;3.55;;
5454;SDS011;2750;49.050;9.250;2022-08-03T20:14:09;3.83;;;3.17;;
5454;SDS011;2750;49.050;9.250;2022-08-03T20:19:13;5.75;;;3.88;;
5454;SDS011;2750;49.050;9.250;2022-08-03T20:24:15;4.53;;;3.47;;
5454;SDS011;2750;49.050;9.250;2022-08-03T20:29:22;3.22;;;2.88;;
5454;SDS011;2750;49.050;9.250;2022-08-03T20:34:29;4.32;;;3.10;;
5454;SDS011;2750;49.050;9.250;2022-08-03T20:39:30;3.58;;;3.28;;
5454;SDS011;2750;49.050;9.250;2022-08-03T20:44:32;4.78;;;3.35;;
5454;SDS011;2750;49.050;9.250;2022-08-03T20:49:37;3.28;;;2.97;;
5454;SDS011;2750;49.050;9.250;2022-08-03T20:54:39;3.85;;;3.42;;
5454;SDS011;2750;49.050;9.250;2022-08-03T20:59:41;3.05;;;2.78;;
5454;SDS011;2750;49.050;9.250;2022-08-03T21:04:46;4.28;;;3.88;;
5454;SDS011;2750;49.050;9.250;2022-08-03T21:09:49;3.10;;;2.80;;
5454;SDS011;2750;49.050;9.250;2022-08-03T21:14:55;2.40;;;2.28;;
5454;SDS011;2750;49.050;9.250;2022-08-03T21:20:04;3.40;;;2.72;;
5454;SDS011;2750;49.050;9.250;2022-08-03T21:25:07;3.10;;;2.90;;
5454;SDS011;2750;49.050;9.250;2022-08-03T21:30:10;4.85;;;3.35;;
5454;SDS011;2750;49.050;9.250;2022-08-03T21:35:16;4.05;;;3.30;;
5454;SDS011;2750;49.050;9.250;2022-08-03T21:40:18;4.35;;;3.08;;
5454;SDS011;2750;49.050;9.250;2022-08-03T21:45:20;5.18;;;3.55;;
5454;SDS011;2750;49.050;9.250;2022-08-03T21:50:23;3.53;;;3.20;;
5454;SDS011;2750;49.050;9.250;2022-08-03T21:55:25;5.70;;;3.15;;
5454;SDS011;2750;49.050;9.250;2022-08-03T22:00:28;3.47;;;3.17;;
5454;SDS011;2750;49.050;9.250;2022-08-03T22:05:31;4.13;;;3.47;;
5454;SDS011;2750;49.050;9.250;2022-08-03T22:10:33;3.38;;;3.08;;
5454;SDS011;2750;49.050;9.250;2022-08-03T22:15:35;5.72;;;2.42;;
5454;SDS011;2750;49.050;9.250;2022-08-03T22:20:37;2.97;;;2.50;;
5454;SDS011;2750;49.050;9.250;2022-08-03T22:25:39;5.00;;;3.22;;
5454;SDS011;2750;49.050;9.250;2022-08-03T22:30:41;3.20;;;2.95;;
5454;SDS011;2750;49.050;9.250;2022-08-03T22:35:45;4.73;;;3.23;;
5454;SDS011;2750;49.050;9.250;2022-08-03T22:40:50;4.28;;;3.88;;
5454;SDS011;2750;49.050;9.250;2022-08-03T22:45:53;5.90;;;2.80;;
5454;SDS011;2750;49.050;9.250;2022-08-03T22:50:57;3.17;;;2.87;;
5454;SDS011;2750;49.050;9.250;2022-08-03T22:55:59;3.70;;;2.80;;
5454;SDS011;2750;49.050;9.250;2022-08-03T23:01:04;4.70;;;3.20;;
5454;SDS011;2750;49.050;9.250;2022-08-03T23:06:10;4.40;;;3.60;;
5454;SDS011;2750;49.050;9.250;2022-08-03T23:11:14;5.10;;;3.40;;
5454;SDS011;2750;49.050;9.250;2022-08-03T23:16:18;3.90;;;3.43;;
5454;SDS011;2750;49.050;9.250;2022-08-03T23:21:23;3.77;;;3.07;;
5454;SDS011;2750;49.050;9.250;2022-08-03T23:26:26;4.03;;;3.50;;
5454;SDS011;2750;49.050;9.250;2022-08-03T23:31:29;3.57;;;3.07;;
5454;SDS011;2750;49.050;9.250;2022-08-03T23:36:32;3.40;;;3.10;;
5454;SDS011;2750;49.050;9.250;2022-08-03T23:41:34;6.40;;;3.20;;
5454;SDS011;2750;49.050;9.250;2022-08-03T23:46:38;5.03;;;3.50;;
5454;SDS011;2750;49.050;9.250;2022-08-03T23:51:44;3.50;;;3.20;;
5454;SDS011;2750;49.050;9.250;2022-08-03T23:56:54;4.07;;;3.13;;
